createdAt,value
2023-04-06T00:01:23.971Z,5.75
2023-04-06T00:06:27.673Z,6.00
2023-04-06T00:11:31.910Z,6.00
2023-04-06T00:16:34.822Z,5.78
2023-04-06T00:21:37.732Z,6.28
2023-04-06T00:26:41.931Z,5.70
2023-04-06T00:31:44.837Z,6.43
2023-04-06T00:36:47.638Z,6.15
2023-04-06T00:41:54.553Z,6.10
2023-04-06T00:46:57.443Z,5.82
2023-04-06T00:52:00.452Z,6.35
2023-04-06T00:57:04.941Z,6.18
2023-04-06T01:02:08.724Z,5.10
2023-04-06T02:35:46.784Z,6.50
2023-04-06T02:40:50.054Z,6.68
2023-04-06T02:45:58.864Z,5.88
2023-04-06T02:51:03.336Z,6.97
2023-04-06T02:56:07.338Z,6.93
2023-04-06T03:01:19.706Z,6.43
2023-04-06T03:06:27.375Z,6.90
2023-04-06T03:11:34.303Z,6.97
2023-04-06T03:16:37.384Z,7.00
2023-04-06T03:21:42.704Z,6.82
2023-04-06T03:26:46.436Z,7.43
2023-04-06T03:31:49.526Z,8.25
2023-04-06T03:37:11.934Z,8.15
2023-04-06T03:42:22.193Z,7.60
2023-04-06T03:47:36.917Z,8.20
2023-04-06T03:52:43.831Z,8.27
2023-04-06T03:57:46.712Z,7.70
2023-04-06T04:02:49.637Z,8.80
2023-04-06T04:07:54.050Z,8.60
2023-04-06T04:13:00.777Z,7.82
2023-04-06T04:18:03.816Z,8.55
2023-04-06T04:23:08.076Z,8.35
2023-04-06T04:28:12.047Z,8.45
2023-04-06T04:33:16.968Z,8.82
2023-04-06T04:38:22.347Z,8.80
2023-04-06T04:43:30.714Z,8.18
2023-04-06T04:48:36.742Z,8.68
2023-04-06T04:53:43.839Z,8.43
2023-04-06T04:58:56.188Z,8.35
2023-04-06T05:04:01.199Z,8.57
2023-04-06T05:09:05.957Z,9.30
2023-04-06T05:14:09.783Z,8.90
2023-04-06T05:19:13.043Z,10.00
2023-04-06T05:24:21.745Z,10.10
2023-04-06T05:29:26.173Z,8.88
2023-04-06T05:34:29.538Z,8.88
2023-04-06T05:39:35.007Z,9.43
2023-04-06T05:44:39.445Z,9.27
2023-04-06T05:49:47.033Z,9.60
2023-04-06T05:54:59.280Z,7.75
2023-04-06T06:00:04.568Z,7.85
2023-04-06T06:05:21.689Z,8.70
2023-04-06T06:10:27.602Z,7.18
2023-04-06T06:15:31.752Z,6.85
2023-04-06T06:20:34.866Z,8.30
2023-04-06T06:25:42.228Z,7.53
2023-04-06T06:30:45.829Z,8.93
2023-04-06T06:35:54.338Z,7.22
2023-04-06T06:40:58.849Z,8.60
2023-04-06T06:46:05.815Z,8.98
2023-04-06T06:51:10.558Z,8.32
2023-04-06T06:56:14.770Z,9.32
2023-04-06T07:01:18.206Z,11.02
2023-04-06T07:06:22.079Z,9.45
2023-04-06T07:11:26.322Z,8.77
2023-04-06T07:16:29.224Z,8.45
2023-04-06T07:21:32.144Z,8.77
2023-04-06T07:26:36.401Z,9.88
2023-04-06T07:31:41.294Z,9.07
2023-04-06T07:36:44.674Z,8.95
2023-04-06T07:41:49.064Z,9.20
2023-04-06T07:46:52.727Z,9.43
2023-04-06T07:51:58.442Z,8.77
2023-04-06T07:57:02.713Z,9.02
2023-04-06T08:02:06.341Z,9.55
2023-04-06T08:07:09.289Z,8.35
2023-04-06T08:12:13.508Z,8.48
2023-04-06T08:17:16.937Z,8.40
2023-04-06T08:22:19.766Z,8.65
2023-04-06T08:27:23.971Z,8.63
2023-04-06T08:32:27.316Z,8.98
2023-04-06T08:37:30.833Z,8.88
2023-04-06T08:42:41.141Z,8.93
2023-04-06T08:47:44.683Z,9.02
2023-04-06T08:52:49.644Z,8.73
2023-04-06T08:57:55.932Z,8.40
2023-04-06T09:02:59.901Z,8.77
2023-04-06T09:08:03.188Z,9.18
2023-04-06T09:13:07.980Z,8.27
2023-04-06T09:18:10.818Z,7.68
2023-04-06T09:23:20.018Z,8.15
2023-04-06T09:28:24.333Z,7.72
2023-04-06T09:33:27.177Z,8.13
2023-04-06T09:38:29.993Z,9.05
2023-04-06T09:43:34.146Z,8.57
2023-04-06T09:48:37.953Z,8.95
2023-04-06T09:53:43.141Z,8.77
2023-04-06T09:58:51.166Z,8.90
2023-04-06T10:03:58.902Z,8.40
2023-04-06T10:09:05.338Z,10.15
2023-04-06T10:14:10.229Z,10.57
2023-04-06T10:19:18.820Z,9.25
2023-04-06T10:24:21.644Z,9.55
2023-04-06T10:29:25.804Z,9.75
2023-04-06T10:40:20.894Z,11.02
2023-04-06T10:45:27.400Z,10.93
2023-04-06T10:50:31.788Z,10.50
2023-04-06T10:55:36.761Z,10.48
2023-04-06T11:00:50.685Z,10.23
2023-04-06T11:05:54.066Z,10.82
2023-04-06T11:11:07.254Z,9.57
2023-04-06T11:16:16.297Z,9.75
2023-04-06T11:21:19.313Z,9.07
2023-04-06T11:26:22.162Z,9.57
2023-04-06T11:31:28.736Z,9.70
2023-04-06T11:36:31.720Z,9.18
2023-04-06T11:41:34.830Z,10.30
2023-04-06T11:46:39.049Z,11.07
2023-04-06T11:51:42.016Z,11.63
2023-04-06T11:56:48.505Z,10.55
2023-04-06T12:01:53.071Z,10.73
2023-04-06T12:06:56.250Z,9.88
2023-04-06T12:11:59.413Z,9.88
2023-04-06T12:17:03.954Z,11.30
2023-04-06T12:22:06.792Z,10.40
2023-04-06T12:27:11.956Z,8.98
2023-04-06T12:32:16.255Z,9.82
2023-04-06T12:37:19.076Z,9.70
2023-04-06T12:42:21.867Z,10.57
2023-04-06T12:47:27.214Z,10.00
2023-04-06T12:52:32.419Z,7.95
2023-04-06T12:57:35.661Z,8.95
2023-04-06T13:02:39.859Z,8.73
2023-04-06T13:07:42.737Z,9.60
2023-04-06T13:12:45.460Z,8.38
2023-04-06T13:17:49.649Z,8.13
2023-04-06T13:22:52.537Z,7.35
2023-04-06T13:27:55.446Z,6.95
2023-04-06T13:32:59.754Z,7.32
2023-04-06T13:38:02.651Z,8.85
2023-04-06T13:43:05.458Z,8.10
2023-04-06T13:48:09.695Z,8.48
2023-04-06T13:53:12.376Z,10.00
2023-04-06T13:58:15.507Z,9.65
2023-04-06T14:03:19.767Z,9.50
2023-04-06T14:08:22.595Z,8.77
2023-04-06T14:13:25.253Z,8.98
2023-04-06T14:18:31.911Z,8.75
2023-04-06T14:23:36.207Z,9.35
2023-04-06T14:28:39.168Z,10.00
2023-04-06T14:33:44.207Z,9.23
2023-04-06T14:38:48.570Z,10.25
2023-04-06T14:43:53.586Z,10.35
2023-04-06T14:48:58.636Z,11.55
2023-04-06T14:54:03.858Z,11.48
2023-04-06T14:59:06.912Z,11.40
2023-04-06T15:04:11.189Z,11.65
2023-04-06T15:09:14.201Z,11.32
2023-04-06T15:14:16.993Z,12.73
2023-04-06T15:19:21.164Z,13.43
2023-04-06T15:24:23.981Z,12.52
2023-04-06T15:29:27.783Z,12.70
2023-04-06T15:34:33.587Z,9.98
2023-04-06T15:39:37.740Z,13.63
2023-04-06T15:44:40.560Z,13.68
2023-04-06T15:49:44.711Z,12.77
2023-04-06T15:54:47.696Z,11.23
2023-04-06T15:59:50.732Z,12.45
2023-04-06T16:04:57.660Z,13.70
2023-04-06T16:10:00.620Z,11.63
2023-04-06T16:15:03.463Z,12.55
2023-04-06T16:20:09.433Z,11.65
2023-04-06T16:25:12.689Z,11.23
2023-04-06T16:30:15.875Z,11.90
2023-04-06T16:35:20.572Z,10.80
2023-04-06T16:40:23.388Z,10.18
2023-04-06T16:45:26.616Z,10.88
2023-04-06T16:50:30.919Z,9.65
2023-04-06T16:55:33.816Z,9.65
2023-04-06T17:00:37.896Z,9.93
2023-04-06T17:05:42.065Z,9.50
2023-04-06T17:10:59.132Z,8.73
2023-04-06T17:16:07.293Z,10.48
2023-04-06T17:21:14.398Z,9.80
2023-04-06T17:26:17.445Z,9.30
2023-04-06T17:31:20.370Z,10.13
2023-04-06T17:36:24.741Z,9.10
2023-04-06T17:41:28.625Z,9.85
2023-04-06T17:46:31.530Z,10.20
2023-04-06T17:51:35.832Z,10.60
2023-04-06T17:56:38.656Z,9.57
2023-04-06T18:01:41.685Z,9.68
2023-04-06T18:06:46.145Z,10.73
2023-04-06T18:11:48.919Z,10.95
2023-04-06T18:16:51.687Z,11.25
2023-04-06T18:21:55.934Z,11.20
2023-04-06T18:26:58.812Z,10.68
2023-04-06T18:32:01.600Z,10.73
2023-04-06T18:37:05.823Z,10.52
2023-04-06T18:42:08.688Z,11.52
2023-04-06T18:47:11.460Z,11.45
2023-04-06T18:52:15.700Z,9.93
2023-04-06T18:57:18.524Z,10.63
2023-04-06T19:02:21.395Z,10.93
2023-04-06T19:07:26.991Z,10.10
2023-04-06T19:12:29.806Z,9.32
2023-04-06T19:17:32.685Z,10.00
2023-04-06T19:22:37.713Z,9.98
2023-04-06T19:27:40.495Z,9.23
2023-04-06T19:32:43.610Z,9.13
2023-04-06T19:37:47.847Z,9.20
2023-04-06T19:42:50.703Z,9.90
2023-04-06T19:47:53.506Z,9.10
2023-04-06T19:52:59.597Z,10.13
2023-04-06T19:58:02.673Z,9.07
2023-04-06T20:03:06.071Z,8.45
2023-04-06T20:08:10.395Z,9.20
2023-04-06T20:13:13.230Z,10.15
2023-04-06T20:18:16.193Z,11.82
2023-04-06T20:23:20.362Z,11.85
2023-04-06T20:28:24.326Z,12.10
2023-04-06T20:33:27.191Z,11.95
2023-04-06T20:43:36.902Z,10.45
2023-04-06T20:48:39.719Z,10.13
2023-04-06T20:53:43.900Z,10.32
2023-04-06T20:58:46.712Z,10.60
2023-04-06T21:03:49.556Z,9.93
2023-04-06T21:08:53.764Z,10.77
2023-04-06T21:13:56.591Z,8.75
2023-04-06T21:18:59.434Z,9.63
2023-04-06T21:24:06.810Z,10.85
2023-04-06T21:29:09.865Z,9.73
2023-04-06T21:39:17.359Z,9.20
2023-04-06T21:44:20.513Z,10.18
2023-04-06T21:49:23.623Z,10.20
2023-04-06T21:54:33.051Z,9.48
2023-04-06T21:59:35.869Z,10.02
2023-04-06T22:04:38.807Z,9.80
2023-04-06T22:09:50.327Z,10.70
2023-04-06T22:14:54.294Z,10.00
2023-04-06T22:19:57.135Z,10.38
2023-04-06T22:25:01.437Z,10.93
2023-04-06T22:30:04.698Z,11.27
2023-04-06T22:35:08.773Z,10.57
2023-04-06T22:40:13.710Z,11.13
2023-04-06T22:45:16.485Z,11.35
2023-04-06T22:50:19.555Z,11.30
2023-04-06T22:55:23.958Z,11.85
2023-04-06T23:00:26.894Z,11.13
2023-04-06T23:05:29.836Z,12.02
2023-04-06T23:10:34.011Z,11.98
2023-04-06T23:15:37.001Z,12.32
2023-04-06T23:20:40.510Z,10.55
2023-04-06T23:25:44.642Z,10.73
2023-04-06T23:30:47.414Z,10.30
2023-04-06T23:35:50.507Z,10.88
2023-04-06T23:40:54.640Z,10.65
2023-04-06T23:45:57.552Z,10.57
2023-04-06T23:51:00.384Z,10.40
2023-04-06T23:56:04.765Z,10.05
